sensor_id;sensor_type;location;lat;lon;timestamp;temperature;humidity
14531;DHT22;7352;50.866;4.366;2023-07-30T01:14:07;19.00;99.90
14531;DHT22;7352;50.866;4.366;2023-07-30T02:05:03;19.10;99.90
14531;DHT22;7352;50.866;4.366;2023-07-30T02:07:46;19.10;99.90
14531;DHT22;7352;50.866;4.366;2023-07-30T02:46:12;18.90;99.90
14531;DHT22;7352;50.866;4.366;2023-07-30T03:07:12;18.70;99.90
14531;DHT22;7352;50.866;4.366;2023-07-30T03:10:01;18.60;99.90
14531;DHT22;7352;50.866;4.366;2023-07-30T03:12:59;18.50;99.90
14531;DHT22;7352;50.866;4.366;2023-07-30T04:41:00;18.10;99.90
14531;DHT22;7352;50.866;4.366;2023-07-30T04:43:54;18.20;99.90
14531;DHT22;7352;50.866;4.366;2023-07-30T04:46:46;18.30;99.90
14531;DHT22;7352;50.866;4.366;2023-07-30T04:49:45;18.30;99.90
14531;DHT22;7352;50.866;4.366;2023-07-30T04:59:23;18.30;99.90
14531;DHT22;7352;50.866;4.366;2023-07-30T05:53:21;18.60;99.90
14531;DHT22;7352;50.866;4.366;2023-07-30T06:32:56;18.80;99.90
14531;DHT22;7352;50.866;4.366;2023-07-30T06:39:51;18.60;99.90
14531;DHT22;7352;50.866;4.366;2023-07-30T06:46:23;18.60;99.90
14531;DHT22;7352;50.866;4.366;2023-07-30T07:11:12;18.80;99.90
14531;DHT22;7352;50.866;4.366;2023-07-30T07:13:49;18.80;99.90
14531;DHT22;7352;50.866;4.366;2023-07-30T07:16:35;19.00;99.90
14531;DHT22;7352;50.866;4.366;2023-07-30T07:19:07;19.20;99.90
14531;DHT22;7352;50.866;4.366;2023-07-30T07:21:41;19.40;99.90
14531;DHT22;7352;50.866;4.366;2023-07-30T07:24:10;19.40;99.90
14531;DHT22;7352;50.866;4.366;2023-07-30T07:26:38;19.40;99.90
14531;DHT22;7352;50.866;4.366;2023-07-30T07:29:10;19.50;99.90
14531;DHT22;7352;50.866;4.366;2023-07-30T07:31:38;19.80;99.90
14531;DHT22;7352;50.866;4.366;2023-07-30T07:34:05;20.10;99.90
14531;DHT22;7352;50.866;4.366;2023-07-30T07:36:37;20.10;99.90
14531;DHT22;7352;50.866;4.366;2023-07-30T07:39:30;20.20;99.90
14531;DHT22;7352;50.866;4.366;2023-07-30T07:42:11;20.40;99.90
14531;DHT22;7352;50.866;4.366;2023-07-30T07:44:38;20.30;99.90
14531;DHT22;7352;50.866;4.366;2023-07-30T07:47:06;20.30;99.90
14531;DHT22;7352;50.866;4.366;2023-07-30T07:49:33;20.40;99.90
14531;DHT22;7352;50.866;4.366;2023-07-30T07:52:01;20.60;99.90
14531;DHT22;7352;50.866;4.366;2023-07-30T07:54:30;20.60;99.90
14531;DHT22;7352;50.866;4.366;2023-07-30T07:56:58;20.70;99.90
14531;DHT22;7352;50.866;4.366;2023-07-30T07:59:31;20.70;99.90
14531;DHT22;7352;50.866;4.366;2023-07-30T08:01:59;20.70;99.90
14531;DHT22;7352;50.866;4.366;2023-07-30T08:04:27;20.80;99.90
14531;DHT22;7352;50.866;4.366;2023-07-30T08:10:32;21.10;99.90
14531;DHT22;7352;50.866;4.366;2023-07-30T08:13:24;20.90;99.90
14531;DHT22;7352;50.866;4.366;2023-07-30T08:19:12;21.10;99.90
14531;DHT22;7352;50.866;4.366;2023-07-30T08:22:19;20.90;99.90
14531;DHT22;7352;50.866;4.366;2023-07-30T09:05:09;21.10;99.90
14531;DHT22;7352;50.866;4.366;2023-07-30T09:07:55;20.90;99.90
14531;DHT22;7352;50.866;4.366;2023-07-30T09:10:27;20.80;99.90
14531;DHT22;7352;50.866;4.366;2023-07-30T09:13:14;20.80;99.90
14531;DHT22;7352;50.866;4.366;2023-07-30T09:16:15;20.60;99.90
14531;DHT22;7352;50.866;4.366;2023-07-30T09:19:30;20.80;99.90
14531;DHT22;7352;50.866;4.366;2023-07-30T09:22:39;21.00;99.90
14531;DHT22;7352;50.866;4.366;2023-07-30T09:27:54;20.80;99.90
14531;DHT22;7352;50.866;4.366;2023-07-30T09:53:40;21.20;99.90
14531;DHT22;7352;50.866;4.366;2023-07-30T09:56:14;20.70;99.90
14531;DHT22;7352;50.866;4.366;2023-07-30T09:58:58;20.50;99.90
14531;DHT22;7352;50.866;4.366;2023-07-30T10:01:41;19.90;99.90
14531;DHT22;7352;50.866;4.366;2023-07-30T10:04:31;19.60;99.90
14531;DHT22;7352;50.866;4.366;2023-07-30T10:08:00;19.40;99.90
14531;DHT22;7352;50.866;4.366;2023-07-30T10:11:15;19.40;99.90
14531;DHT22;7352;50.866;4.366;2023-07-30T10:17:27;19.70;99.90
14531;DHT22;7352;50.866;4.366;2023-07-30T10:20:38;20.10;99.90
14531;DHT22;7352;50.866;4.366;2023-07-30T10:24:01;20.40;99.90
14531;DHT22;7352;50.866;4.366;2023-07-30T10:30:17;20.30;99.90
14531;DHT22;7352;50.866;4.366;2023-07-30T10:34:54;20.50;99.90
14531;DHT22;7352;50.866;4.366;2023-07-30T10:37:37;20.70;99.90
14531;DHT22;7352;50.866;4.366;2023-07-30T10:40:32;20.80;99.90
14531;DHT22;7352;50.866;4.366;2023-07-30T11:04:37;21.50;99.90
14531;DHT22;7352;50.866;4.366;2023-07-30T11:14:31;22.50;99.90
14531;DHT22;7352;50.866;4.366;2023-07-30T11:17:04;22.60;99.90
14531;DHT22;7352;50.866;4.366;2023-07-30T11:19:43;22.90;99.90
14531;DHT22;7352;50.866;4.366;2023-07-30T11:22:41;23.00;99.90
14531;DHT22;7352;50.866;4.366;2023-07-30T11:25:41;23.10;99.90
14531;DHT22;7352;50.866;4.366;2023-07-30T11:31:33;23.10;99.90
14531;DHT22;7352;50.866;4.366;2023-07-30T11:40:39;23.00;99.90
14531;DHT22;7352;50.866;4.366;2023-07-30T11:43:11;23.20;99.90
14531;DHT22;7352;50.866;4.366;2023-07-30T11:49:16;22.90;99.80
14531;DHT22;7352;50.866;4.366;2023-07-30T11:52:08;22.80;99.60
14531;DHT22;7352;50.866;4.366;2023-07-30T11:54:36;22.70;99.90
14531;DHT22;7352;50.866;4.366;2023-07-30T11:57:23;22.70;99.90
14531;DHT22;7352;50.866;4.366;2023-07-30T11:59:59;22.80;99.90
14531;DHT22;7352;50.866;4.366;2023-07-30T12:02:30;22.90;99.90
14531;DHT22;7352;50.866;4.366;2023-07-30T12:04:57;22.80;99.50
14531;DHT22;7352;50.866;4.366;2023-07-30T12:07:25;22.90;99.80
14531;DHT22;7352;50.866;4.366;2023-07-30T12:10:13;23.20;99.50
14531;DHT22;7352;50.866;4.366;2023-07-30T12:13:01;23.40;98.30
14531;DHT22;7352;50.866;4.366;2023-07-30T12:16:16;23.60;97.30
14531;DHT22;7352;50.866;4.366;2023-07-30T12:18:45;23.80;97.00
14531;DHT22;7352;50.866;4.366;2023-07-30T12:21:33;24.00;97.20
14531;DHT22;7352;50.866;4.366;2023-07-30T12:24:20;24.40;97.20
14531;DHT22;7352;50.866;4.366;2023-07-30T12:27:06;24.50;96.70
14531;DHT22;7352;50.866;4.366;2023-07-30T12:33:13;24.30;97.10
14531;DHT22;7352;50.866;4.366;2023-07-30T12:36:07;24.50;96.70
14531;DHT22;7352;50.866;4.366;2023-07-30T12:38:45;24.50;96.80
14531;DHT22;7352;50.866;4.366;2023-07-30T12:41:25;24.50;96.60
14531;DHT22;7352;50.866;4.366;2023-07-30T12:44:05;24.50;96.20
14531;DHT22;7352;50.866;4.366;2023-07-30T12:46:33;24.50;95.60
14531;DHT22;7352;50.866;4.366;2023-07-30T12:49:16;24.40;95.80
14531;DHT22;7352;50.866;4.366;2023-07-30T12:51:57;24.30;95.90
14531;DHT22;7352;50.866;4.366;2023-07-30T12:54:24;24.10;96.60
14531;DHT22;7352;50.866;4.366;2023-07-30T12:56:51;24.10;96.60
14531;DHT22;7352;50.866;4.366;2023-07-30T12:59:18;24.10;96.50
14531;DHT22;7352;50.866;4.366;2023-07-30T13:01:45;24.30;96.20
14531;DHT22;7352;50.866;4.366;2023-07-30T13:04:20;24.50;95.30
14531;DHT22;7352;50.866;4.366;2023-07-30T13:06:47;24.60;94.30
14531;DHT22;7352;50.866;4.366;2023-07-30T13:09:17;24.50;93.20
14531;DHT22;7352;50.866;4.366;2023-07-30T13:11:52;24.50;93.10
14531;DHT22;7352;50.866;4.366;2023-07-30T13:14:32;24.50;93.50
14531;DHT22;7352;50.866;4.366;2023-07-30T13:17:02;24.50;93.50
14531;DHT22;7352;50.866;4.366;2023-07-30T13:19:33;24.40;93.30
14531;DHT22;7352;50.866;4.366;2023-07-30T13:22:00;24.60;93.20
14531;DHT22;7352;50.866;4.366;2023-07-30T13:24:27;24.70;93.00
14531;DHT22;7352;50.866;4.366;2023-07-30T13:26:57;25.00;93.00
14531;DHT22;7352;50.866;4.366;2023-07-30T13:29:24;25.10;92.10
14531;DHT22;7352;50.866;4.366;2023-07-30T13:31:51;25.00;91.90
14531;DHT22;7352;50.866;4.366;2023-07-30T13:34:18;25.00;91.90
14531;DHT22;7352;50.866;4.366;2023-07-30T13:36:52;25.10;91.90
14531;DHT22;7352;50.866;4.366;2023-07-30T13:39:19;25.20;92.30
14531;DHT22;7352;50.866;4.366;2023-07-30T13:41:46;25.00;91.50
14531;DHT22;7352;50.866;4.366;2023-07-30T13:44:13;24.90;91.70
14531;DHT22;7352;50.866;4.366;2023-07-30T13:46:40;24.90;91.50
14531;DHT22;7352;50.866;4.366;2023-07-30T13:49:07;24.80;91.40
14531;DHT22;7352;50.866;4.366;2023-07-30T13:51:35;24.90;91.60
14531;DHT22;7352;50.866;4.366;2023-07-30T13:54:03;25.00;91.60
14531;DHT22;7352;50.866;4.366;2023-07-30T13:56:34;25.10;91.40
14531;DHT22;7352;50.866;4.366;2023-07-30T13:59:04;24.90;90.30
14531;DHT22;7352;50.866;4.366;2023-07-30T14:01:32;24.60;91.40
14531;DHT22;7352;50.866;4.366;2023-07-30T14:03:59;24.40;91.60
14531;DHT22;7352;50.866;4.366;2023-07-30T14:06:27;24.50;91.90
14531;DHT22;7352;50.866;4.366;2023-07-30T14:08:55;24.80;92.20
14531;DHT22;7352;50.866;4.366;2023-07-30T14:11:28;24.90;92.30
14531;DHT22;7352;50.866;4.366;2023-07-30T14:13:57;25.10;92.20
14531;DHT22;7352;50.866;4.366;2023-07-30T14:16:27;25.10;92.60
14531;DHT22;7352;50.866;4.366;2023-07-30T14:18:55;25.10;93.10
14531;DHT22;7352;50.866;4.366;2023-07-30T14:21:22;24.90;93.10
14531;DHT22;7352;50.866;4.366;2023-07-30T14:23:53;24.80;93.70
14531;DHT22;7352;50.866;4.366;2023-07-30T14:26:29;24.40;93.90
14531;DHT22;7352;50.866;4.366;2023-07-30T14:28:57;24.20;94.40
14531;DHT22;7352;50.866;4.366;2023-07-30T14:31:26;24.50;94.50
14531;DHT22;7352;50.866;4.366;2023-07-30T14:33:55;24.60;94.60
14531;DHT22;7352;50.866;4.366;2023-07-30T14:36:25;25.00;94.60
14531;DHT22;7352;50.866;4.366;2023-07-30T14:38:54;25.00;94.20
14531;DHT22;7352;50.866;4.366;2023-07-30T14:41:22;24.90;94.70
14531;DHT22;7352;50.866;4.366;2023-07-30T14:43:53;24.90;94.50
14531;DHT22;7352;50.866;4.366;2023-07-30T14:46:25;24.60;94.90
14531;DHT22;7352;50.866;4.366;2023-07-30T14:48:56;24.50;96.00
14531;DHT22;7352;50.866;4.366;2023-07-30T14:51:24;24.30;95.80
14531;DHT22;7352;50.866;4.366;2023-07-30T14:53:55;24.20;96.70
14531;DHT22;7352;50.866;4.366;2023-07-30T14:56:23;24.00;96.50
14531;DHT22;7352;50.866;4.366;2023-07-30T14:58:50;24.00;97.00
14531;DHT22;7352;50.866;4.366;2023-07-30T15:01:19;23.90;97.10
14531;DHT22;7352;50.866;4.366;2023-07-30T15:03:46;23.70;98.00
14531;DHT22;7352;50.866;4.366;2023-07-30T15:06:12;23.50;97.80
14531;DHT22;7352;50.866;4.366;2023-07-30T15:08:40;23.40;98.30
14531;DHT22;7352;50.866;4.366;2023-07-30T15:11:07;23.60;98.00
14531;DHT22;7352;50.866;4.366;2023-07-30T15:13:35;23.70;97.60
14531;DHT22;7352;50.866;4.366;2023-07-30T15:16:02;23.40;97.80
14531;DHT22;7352;50.866;4.366;2023-07-30T15:18:31;23.30;98.20
14531;DHT22;7352;50.866;4.366;2023-07-30T15:20:58;23.10;98.40
14531;DHT22;7352;50.866;4.366;2023-07-30T15:23:25;23.00;99.50
14531;DHT22;7352;50.866;4.366;2023-07-30T15:25:52;23.00;99.90
14531;DHT22;7352;50.866;4.366;2023-07-30T15:28:20;23.00;99.90
14531;DHT22;7352;50.866;4.366;2023-07-30T15:30:47;22.70;99.90
14531;DHT22;7352;50.866;4.366;2023-07-30T15:33:14;22.50;99.90
14531;DHT22;7352;50.866;4.366;2023-07-30T15:35:42;22.50;99.90
14531;DHT22;7352;50.866;4.366;2023-07-30T15:38:09;22.50;99.90
14531;DHT22;7352;50.866;4.366;2023-07-30T15:40:48;22.50;99.90
14531;DHT22;7352;50.866;4.366;2023-07-30T15:43:33;22.60;99.90
14531;DHT22;7352;50.866;4.366;2023-07-30T15:46:06;22.70;99.90
14531;DHT22;7352;50.866;4.366;2023-07-30T15:48:40;22.60;99.90
14531;DHT22;7352;50.866;4.366;2023-07-30T15:51:09;22.50;99.90
14531;DHT22;7352;50.866;4.366;2023-07-30T15:53:41;22.40;99.90
14531;DHT22;7352;50.866;4.366;2023-07-30T15:56:18;22.40;99.90
14531;DHT22;7352;50.866;4.366;2023-07-30T15:58:45;22.50;99.90
14531;DHT22;7352;50.866;4.366;2023-07-30T16:01:27;22.40;99.90
14531;DHT22;7352;50.866;4.366;2023-07-30T16:03:58;22.30;99.90
14531;DHT22;7352;50.866;4.366;2023-07-30T16:06:35;22.20;99.90
14531;DHT22;7352;50.866;4.366;2023-07-30T16:09:02;22.10;99.90
14531;DHT22;7352;50.866;4.366;2023-07-30T16:11:30;22.00;99.90
14531;DHT22;7352;50.866;4.366;2023-07-30T16:13:59;21.70;99.90
14531;DHT22;7352;50.866;4.366;2023-07-30T16:16:25;21.70;99.90
14531;DHT22;7352;50.866;4.366;2023-07-30T16:18:59;21.40;99.90
14531;DHT22;7352;50.866;4.366;2023-07-30T16:21:28;21.20;99.90
14531;DHT22;7352;50.866;4.366;2023-07-30T16:23:55;21.10;99.90
14531;DHT22;7352;50.866;4.366;2023-07-30T16:26:23;20.90;99.90
14531;DHT22;7352;50.866;4.366;2023-07-30T16:28:50;20.70;99.90
14531;DHT22;7352;50.866;4.366;2023-07-30T16:31:17;20.50;99.90
14531;DHT22;7352;50.866;4.366;2023-07-30T16:33:44;20.20;99.90
14531;DHT22;7352;50.866;4.366;2023-07-30T16:36:13;20.00;99.90
14531;DHT22;7352;50.866;4.366;2023-07-30T16:38:44;20.00;99.90
14531;DHT22;7352;50.866;4.366;2023-07-30T16:41:15;20.00;99.90
14531;DHT22;7352;50.866;4.366;2023-07-30T16:43:46;20.20;99.90
14531;DHT22;7352;50.866;4.366;2023-07-30T16:46:27;20.20;99.90
14531;DHT22;7352;50.866;4.366;2023-07-30T16:48:57;20.20;99.90
14531;DHT22;7352;50.866;4.366;2023-07-30T16:51:24;20.10;99.90
14531;DHT22;7352;50.866;4.366;2023-07-30T16:53:55;20.20;99.90
14531;DHT22;7352;50.866;4.366;2023-07-30T16:56:22;20.30;99.90
14531;DHT22;7352;50.866;4.366;2023-07-30T16:58:49;20.10;99.90
14531;DHT22;7352;50.866;4.366;2023-07-30T17:01:17;20.00;99.90
14531;DHT22;7352;50.866;4.366;2023-07-30T17:03:45;19.90;99.90
14531;DHT22;7352;50.866;4.366;2023-07-30T17:06:12;19.70;99.90
14531;DHT22;7352;50.866;4.366;2023-07-30T17:08:40;19.70;99.90
14531;DHT22;7352;50.866;4.366;2023-07-30T17:11:11;19.60;99.90
14531;DHT22;7352;50.866;4.366;2023-07-30T17:13:40;19.60;99.90
14531;DHT22;7352;50.866;4.366;2023-07-30T17:16:10;19.60;99.90
14531;DHT22;7352;50.866;4.366;2023-07-30T17:18:38;19.60;99.90
14531;DHT22;7352;50.866;4.366;2023-07-30T17:21:06;19.70;99.90
14531;DHT22;7352;50.866;4.366;2023-07-30T17:23:34;19.60;99.90
14531;DHT22;7352;50.866;4.366;2023-07-30T17:26:01;19.40;99.90
14531;DHT22;7352;50.866;4.366;2023-07-30T17:28:46;19.30;99.90
14531;DHT22;7352;50.866;4.366;2023-07-30T17:31:33;19.40;99.90
14531;DHT22;7352;50.866;4.366;2023-07-30T17:34:05;19.40;99.90
14531;DHT22;7352;50.866;4.366;2023-07-30T17:36:41;19.40;99.90
14531;DHT22;7352;50.866;4.366;2023-07-30T17:39:15;19.40;99.90
14531;DHT22;7352;50.866;4.366;2023-07-30T17:41:42;19.30;99.90
14531;DHT22;7352;50.866;4.366;2023-07-30T17:44:11;19.30;99.90
14531;DHT22;7352;50.866;4.366;2023-07-30T17:46:39;19.30;99.90
14531;DHT22;7352;50.866;4.366;2023-07-30T17:49:07;19.50;99.90
14531;DHT22;7352;50.866;4.366;2023-07-30T17:51:36;19.50;99.90
14531;DHT22;7352;50.866;4.366;2023-07-30T17:54:05;19.50;99.90
14531;DHT22;7352;50.866;4.366;2023-07-30T17:56:32;19.40;99.90
14531;DHT22;7352;50.866;4.366;2023-07-30T17:58:59;19.40;99.90
14531;DHT22;7352;50.866;4.366;2023-07-30T18:01:28;19.30;99.90
14531;DHT22;7352;50.866;4.366;2023-07-30T18:03:55;19.30;99.90
14531;DHT22;7352;50.866;4.366;2023-07-30T18:06:22;19.30;99.90
14531;DHT22;7352;50.866;4.366;2023-07-30T18:08:49;19.30;99.90
14531;DHT22;7352;50.866;4.366;2023-07-30T18:11:31;19.30;99.90
14531;DHT22;7352;50.866;4.366;2023-07-30T18:14:10;19.30;99.90
14531;DHT22;7352;50.866;4.366;2023-07-30T18:16:45;19.30;99.90
14531;DHT22;7352;50.866;4.366;2023-07-30T18:19:18;19.20;99.90
14531;DHT22;7352;50.866;4.366;2023-07-30T18:22:00;19.30;99.90
14531;DHT22;7352;50.866;4.366;2023-07-30T18:24:35;19.20;99.90
14531;DHT22;7352;50.866;4.366;2023-07-30T18:27:28;19.20;99.90
14531;DHT22;7352;50.866;4.366;2023-07-30T18:30:00;19.40;99.90
14531;DHT22;7352;50.866;4.366;2023-07-30T18:32:44;19.30;99.90
14531;DHT22;7352;50.866;4.366;2023-07-30T18:35:32;19.20;99.90
14531;DHT22;7352;50.866;4.366;2023-07-30T18:37:59;19.30;99.90
14531;DHT22;7352;50.866;4.366;2023-07-30T18:40:26;19.20;99.90
14531;DHT22;7352;50.866;4.366;2023-07-30T18:42:54;19.30;99.90
14531;DHT22;7352;50.866;4.366;2023-07-30T18:45:21;19.20;99.90
14531;DHT22;7352;50.866;4.366;2023-07-30T18:47:58;19.20;99.90
14531;DHT22;7352;50.866;4.366;2023-07-30T18:53:11;19.10;99.90
14531;DHT22;7352;50.866;4.366;2023-07-30T18:55:44;19.10;99.90
14531;DHT22;7352;50.866;4.366;2023-07-30T18:58:29;19.30;99.90
14531;DHT22;7352;50.866;4.366;2023-07-30T19:01:00;19.10;99.90
14531;DHT22;7352;50.866;4.366;2023-07-30T19:03:45;19.10;99.90
14531;DHT22;7352;50.866;4.366;2023-07-30T19:06:17;19.20;99.90
14531;DHT22;7352;50.866;4.366;2023-07-30T19:08:54;19.10;99.90
14531;DHT22;7352;50.866;4.366;2023-07-30T19:11:21;19.20;99.90
14531;DHT22;7352;50.866;4.366;2023-07-30T19:13:48;19.20;99.90
14531;DHT22;7352;50.866;4.366;2023-07-30T19:16:15;19.30;99.90
14531;DHT22;7352;50.866;4.366;2023-07-30T19:18:47;19.20;99.90
14531;DHT22;7352;50.866;4.366;2023-07-30T19:21:18;19.20;99.90
14531;DHT22;7352;50.866;4.366;2023-07-30T19:23:48;19.10;99.90
14531;DHT22;7352;50.866;4.366;2023-07-30T19:26:15;19.10;99.90
14531;DHT22;7352;50.866;4.366;2023-07-30T19:28:42;19.10;99.90
14531;DHT22;7352;50.866;4.366;2023-07-30T19:31:11;19.10;99.90
14531;DHT22;7352;50.866;4.366;2023-07-30T19:33:39;19.10;99.90
14531;DHT22;7352;50.866;4.366;2023-07-30T19:36:09;19.10;99.90
14531;DHT22;7352;50.866;4.366;2023-07-30T19:38:40;19.10;99.90
14531;DHT22;7352;50.866;4.366;2023-07-30T19:41:10;19.10;99.90
14531;DHT22;7352;50.866;4.366;2023-07-30T19:43:45;19.20;99.90
14531;DHT22;7352;50.866;4.366;2023-07-30T19:46:19;19.20;99.90
14531;DHT22;7352;50.866;4.366;2023-07-30T19:48:49;19.20;99.90
14531;DHT22;7352;50.866;4.366;2023-07-30T19:51:18;19.10;99.90
14531;DHT22;7352;50.866;4.366;2023-07-30T19:53:46;19.10;99.90
14531;DHT22;7352;50.866;4.366;2023-07-30T19:56:13;19.10;99.90
14531;DHT22;7352;50.866;4.366;2023-07-30T19:58:40;19.00;99.90
14531;DHT22;7352;50.866;4.366;2023-07-30T20:01:08;18.90;99.90
14531;DHT22;7352;50.866;4.366;2023-07-30T20:03:35;19.00;99.90
14531;DHT22;7352;50.866;4.366;2023-07-30T20:06:04;18.90;99.90
14531;DHT22;7352;50.866;4.366;2023-07-30T20:08:34;19.00;99.90
14531;DHT22;7352;50.866;4.366;2023-07-30T20:11:02;19.00;99.90
14531;DHT22;7352;50.866;4.366;2023-07-30T20:13:34;18.90;99.90
14531;DHT22;7352;50.866;4.366;2023-07-30T20:16:10;18.80;99.90
14531;DHT22;7352;50.866;4.366;2023-07-30T20:18:39;18.90;99.90
14531;DHT22;7352;50.866;4.366;2023-07-30T20:21:11;18.90;99.90
14531;DHT22;7352;50.866;4.366;2023-07-30T20:23:39;18.80;99.90
14531;DHT22;7352;50.866;4.366;2023-07-30T20:26:11;18.70;99.90
14531;DHT22;7352;50.866;4.366;2023-07-30T20:28:42;18.80;99.90
14531;DHT22;7352;50.866;4.366;2023-07-30T20:31:11;18.80;99.90
14531;DHT22;7352;50.866;4.366;2023-07-30T20:33:39;18.80;99.90
14531;DHT22;7352;50.866;4.366;2023-07-30T20:36:07;18.80;99.90
14531;DHT22;7352;50.866;4.366;2023-07-30T20:38:35;18.90;99.90
14531;DHT22;7352;50.866;4.366;2023-07-30T20:41:16;18.90;99.90
14531;DHT22;7352;50.866;4.366;2023-07-30T20:43:45;18.90;99.90
14531;DHT22;7352;50.866;4.366;2023-07-30T20:46:13;18.90;99.90
14531;DHT22;7352;50.866;4.366;2023-07-30T20:48:47;19.00;99.90
14531;DHT22;7352;50.866;4.366;2023-07-30T20:51:20;18.90;99.90
14531;DHT22;7352;50.866;4.366;2023-07-30T20:53:51;19.00;99.90
14531;DHT22;7352;50.866;4.366;2023-07-30T20:59:26;19.00;99.90
14531;DHT22;7352;50.866;4.366;2023-07-30T21:01:53;19.00;99.90
14531;DHT22;7352;50.866;4.366;2023-07-30T21:04:20;19.00;99.90
14531;DHT22;7352;50.866;4.366;2023-07-30T21:06:48;18.80;99.90
14531;DHT22;7352;50.866;4.366;2023-07-30T21:09:16;18.90;99.90
14531;DHT22;7352;50.866;4.366;2023-07-30T21:11:44;18.90;99.90
14531;DHT22;7352;50.866;4.366;2023-07-30T21:14:11;18.90;99.90
14531;DHT22;7352;50.866;4.366;2023-07-30T21:16:39;18.80;99.90
14531;DHT22;7352;50.866;4.366;2023-07-30T21:19:09;18.80;99.90
14531;DHT22;7352;50.866;4.366;2023-07-30T21:21:40;18.90;99.90
14531;DHT22;7352;50.866;4.366;2023-07-30T21:24:08;18.90;99.90
14531;DHT22;7352;50.866;4.366;2023-07-30T21:26:35;18.90;99.90
14531;DHT22;7352;50.866;4.366;2023-07-30T21:29:02;18.90;99.90
14531;DHT22;7352;50.866;4.366;2023-07-30T21:31:30;18.80;99.90
14531;DHT22;7352;50.866;4.366;2023-07-30T21:33:58;18.90;99.90
14531;DHT22;7352;50.866;4.366;2023-07-30T21:36:26;18.90;99.90
14531;DHT22;7352;50.866;4.366;2023-07-30T21:38:54;18.90;99.90
14531;DHT22;7352;50.866;4.366;2023-07-30T21:41:23;18.90;99.90
14531;DHT22;7352;50.866;4.366;2023-07-30T21:43:53;18.90;99.90
14531;DHT22;7352;50.866;4.366;2023-07-30T21:46:21;19.00;99.90
14531;DHT22;7352;50.866;4.366;2023-07-30T21:48:48;19.00;99.90
14531;DHT22;7352;50.866;4.366;2023-07-30T21:51:17;18.90;99.90
14531;DHT22;7352;50.866;4.366;2023-07-30T21:53:46;19.00;99.90
14531;DHT22;7352;50.866;4.366;2023-07-30T21:56:13;18.90;99.90
14531;DHT22;7352;50.866;4.366;2023-07-30T21:58:40;18.80;99.90
14531;DHT22;7352;50.866;4.366;2023-07-30T22:01:08;18.90;99.90
14531;DHT22;7352;50.866;4.366;2023-07-30T22:03:36;18.90;99.90
14531;DHT22;7352;50.866;4.366;2023-07-30T22:06:03;18.90;99.90
14531;DHT22;7352;50.866;4.366;2023-07-30T22:08:31;18.90;99.90
14531;DHT22;7352;50.866;4.366;2023-07-30T22:10:58;19.10;99.90
14531;DHT22;7352;50.866;4.366;2023-07-30T22:13:25;19.10;99.90
14531;DHT22;7352;50.866;4.366;2023-07-30T22:15:53;19.10;99.90
14531;DHT22;7352;50.866;4.366;2023-07-30T22:18:21;19.00;99.90
14531;DHT22;7352;50.866;4.366;2023-07-30T22:20:48;19.10;99.90
14531;DHT22;7352;50.866;4.366;2023-07-30T22:23:16;18.90;99.90
14531;DHT22;7352;50.866;4.366;2023-07-30T22:25:44;19.00;99.90
14531;DHT22;7352;50.866;4.366;2023-07-30T22:28:11;19.10;99.90
14531;DHT22;7352;50.866;4.366;2023-07-30T22:30:38;19.10;99.90
14531;DHT22;7352;50.866;4.366;2023-07-30T22:33:06;19.10;99.90
14531;DHT22;7352;50.866;4.366;2023-07-30T22:35:33;18.90;99.90
14531;DHT22;7352;50.866;4.366;2023-07-30T22:38:00;19.00;99.90
14531;DHT22;7352;50.866;4.366;2023-07-30T22:40:27;18.80;99.90
14531;DHT22;7352;50.866;4.366;2023-07-30T22:42:57;18.80;99.90
14531;DHT22;7352;50.866;4.366;2023-07-30T22:45:24;18.70;99.90
14531;DHT22;7352;50.866;4.366;2023-07-30T22:47:51;18.70;99.90
14531;DHT22;7352;50.866;4.366;2023-07-30T22:50:19;18.70;99.90
14531;DHT22;7352;50.866;4.366;2023-07-30T22:52:46;18.80;99.90
14531;DHT22;7352;50.866;4.366;2023-07-30T22:55:13;18.70;99.90
14531;DHT22;7352;50.866;4.366;2023-07-30T22:57:40;18.70;99.90
14531;DHT22;7352;50.866;4.366;2023-07-30T23:00:09;18.70;99.90
14531;DHT22;7352;50.866;4.366;2023-07-30T23:02:36;18.80;99.90
14531;DHT22;7352;50.866;4.366;2023-07-30T23:05:04;18.80;99.90
14531;DHT22;7352;50.866;4.366;2023-07-30T23:07:32;18.70;99.90
14531;DHT22;7352;50.866;4.366;2023-07-30T23:09:59;18.80;99.90
14531;DHT22;7352;50.866;4.366;2023-07-30T23:12:26;18.70;99.90
14531;DHT22;7352;50.866;4.366;2023-07-30T23:14:53;18.70;99.90
14531;DHT22;7352;50.866;4.366;2023-07-30T23:17:21;18.70;99.90
14531;DHT22;7352;50.866;4.366;2023-07-30T23:19:48;18.70;99.90
14531;DHT22;7352;50.866;4.366;2023-07-30T23:22:15;18.60;99.90
14531;DHT22;7352;50.866;4.366;2023-07-30T23:24:42;18.60;99.90
14531;DHT22;7352;50.866;4.366;2023-07-30T23:27:09;18.60;99.90
14531;DHT22;7352;50.866;4.366;2023-07-30T23:29:37;18.50;99.90
14531;DHT22;7352;50.866;4.366;2023-07-30T23:32:05;18.40;99.90
14531;DHT22;7352;50.866;4.366;2023-07-30T23:34:34;18.40;99.90
14531;DHT22;7352;50.866;4.366;2023-07-30T23:37:01;18.40;99.90
14531;DHT22;7352;50.866;4.366;2023-07-30T23:39:28;18.40;99.90
14531;DHT22;7352;50.866;4.366;2023-07-30T23:41:55;18.40;99.90
14531;DHT22;7352;50.866;4.366;2023-07-30T23:44:22;18.40;99.90
14531;DHT22;7352;50.866;4.366;2023-07-30T23:46:49;18.40;99.90
14531;DHT22;7352;50.866;4.366;2023-07-30T23:49:16;18.40;99.90
14531;DHT22;7352;50.866;4.366;2023-07-30T23:51:46;18.50;99.90
14531;DHT22;7352;50.866;4.366;2023-07-30T23:54:13;18.60;99.90
14531;DHT22;7352;50.866;4.366;2023-07-30T23:56:40;18.60;99.90
14531;DHT22;7352;50.866;4.366;2023-07-30T23:59:07;18.60;99.90
